Flight Track Log - Related Links

Times and Time Zones

All times are in EDT time to prevent confusion due to time zone crossing. See the EJA831 flight status page for this flight to view local times or setup timezone preferences in your user account.

Time Position Orientation Groundspeed Altitude Reporting Facility
EDT Latitude Longitude Course Direction KTS MPH feet Rate Location/Type
Wed 02:01:02 PM 33.6278 -117.8947 90° East 208 239 2,800  Level Los Angeles Center
Wed 02:02:04 PM 33.5644 -117.9042 187° South 231 266 5,800 2,758 Climbing Los Angeles Center
Wed 02:03:06 PM 33.5194 -117.9472 219° Southwest 230 265 8,500 2,677 Climbing Los Angeles Center
Wed 02:05:10 PM 33.6378 -118.0636 321° Northwest 307 353 14,100 2,645 Climbing Los Angeles Center
Wed 02:06:00 PM 33.8667 -117.9542 90° East  Level FlightAware Approximate
Wed 02:06:12 PM 33.7278 -118.0578 North 326 375 16,700  Level Los Angeles Center
Wed 02:07:14 PM 33.8147 -118.0253 17° North 344 396 18,900 2,226 Climbing Los Angeles Center
Wed 02:08:16 PM 33.8939 -117.9556 36° Northeast 353 406 21,300 1,968 Climbing Los Angeles Center
Wed 02:09:19 PM 33.9933 -117.8644 37° Northeast 369 425 23,000 1,248 Climbing Los Angeles Center
Wed 02:10:21 PM 34.0858 -117.7783 38° Northeast 409 471 23,900 484 Climbing Los Angeles Center
Wed 02:11:23 PM 34.1647 -117.6722 48° Northeast 422 486 24,000 48 Climbing Los Angeles Center
Wed 02:12:25 PM 34.2433 -117.5647 48° Northeast 427 491 24,000  Level Los Angeles Center
Wed 02:13:27 PM 34.3214 -117.4594 48° Northeast 423 487 24,000  Level Los Angeles Center
Wed 02:14:29 PM 34.4039 -117.3458 49° Northeast 430 495 24,000 774 Level Los Angeles Center
Wed 02:15:31 PM 34.4817 -117.2406 48° Northeast 424 488 25,600 1,984 Climbing Los Angeles Center
Wed 02:16:33 PM 34.5697 -117.1178 49° Northeast 407 468 28,100 2,112 Climbing Los Angeles Center
Wed 02:17:36 PM 34.6433 -117.0183 48° Northeast 399 459 30,000 1,872 Climbing Los Angeles Center
Wed 02:18:38 PM 34.7147 -116.9192 49° Northeast 393 452 32,000 1,935 Climbing Los Angeles Center
Wed 02:19:40 PM 34.7836 -116.8233 49° Northeast 380 437 34,000 1,548 Climbing Los Angeles Center
Wed 02:20:42 PM 34.8528 -116.7269 49° Northeast 380 437 35,200 1,258 Climbing Los Angeles Center
Wed 02:21:44 PM 34.9378 -116.6100 48° Northeast 386 444 36,600 1,161 Climbing Los Angeles Center
Wed 02:22:46 PM 35.0142 -116.5114 47° Northeast 397 457 37,600 968 Climbing Los Angeles Center
Wed 02:23:48 PM 35.0911 -116.4144 46° Northeast 398 458 38,600 960 Climbing Los Angeles Center
Wed 02:24:51 PM 35.1694 -116.3158 46° Northeast 404 465 39,600 960 Climbing Los Angeles Center
Wed 02:25:53 PM 35.2472 -116.2197 45° Northeast 400 460 40,600 677 Climbing Los Angeles Center
Wed 02:26:55 PM 35.3397 -116.1006 46° Northeast 404 465 41,000 194 Climbing Los Angeles Center
Wed 02:27:57 PM 35.4217 -115.9975 46° Northeast 421 484 41,000  Level Los Angeles Center
Wed 02:28:59 PM 35.5056 -115.8906 46° Northeast 433 498 41,000  Level Los Angeles Center
Wed 02:30:01 PM 35.5750 -115.7450 60° Northeast 435 501 41,000  Level Los Angeles Center
Wed 02:31:03 PM 35.6367 -115.6136 60° Northeast 444 511 41,000  Level Los Angeles Center
Wed 02:32:07 PM 35.7000 -115.4819 59° Northeast 449 517 41,000  Level Los Angeles Center
Wed 02:33:08 PM 35.7619 -115.3500 60° Northeast 448 516 41,000  Level Los Angeles Center
Wed 02:34:10 PM 35.8239 -115.2175 60° Northeast 448 516 41,000  Level Los Angeles Center
Wed 02:35:12 PM 35.8953 -115.0583 61° Northeast 446 513 41,000  Level Los Angeles Center
Wed 02:36:14 PM 35.9575 -114.9242 60° Northeast 450 518 41,000  Level Los Angeles Center
Wed 02:37:16 PM 36.0208 -114.7894 60° Northeast 454 522 41,000  Level Los Angeles Center
Wed 02:38:18 PM 36.0833 -114.6539 60° Northeast 456 525 41,000  Level Los Angeles Center
Wed 02:39:21 PM 36.1450 -114.5169 61° Northeast 457 526 41,000  Level Los Angeles Center
Wed 02:40:23 PM 36.2203 -114.3525 60° Northeast 459 528 41,000  Level Los Angeles Center
Wed 02:41:25 PM 36.2836 -114.2153 60° Northeast 460 529 41,000  Level Los Angeles Center
Wed 02:42:27 PM 36.3458 -114.0767 61° Northeast 461 531 41,000 -48 Level Los Angeles Center
Wed 02:43:29 PM 36.4086 -113.9378 61° Northeast 461 531 40,900 -581 Descending Los Angeles Center
Wed 02:44:31 PM 36.4731 -113.7972 60° Northeast 468 539 39,800 -1,065 Descending Los Angeles Center
Wed 02:45:33 PM 36.5358 -113.6531 62° Northeast 463 533 38,700 -1,056 Descending Los Angeles Center
Wed 02:46:36 PM 36.5967 -113.5175 61° Northeast 455 524 37,600 -1,248 Descending Los Angeles Center
Wed 02:47:38 PM 36.6700 -113.3542 61° Northeast 452 520 36,100 -1,258 Descending Los Angeles Center
Wed 02:48:40 PM 36.7294 -113.2183 61° Northeast 450 518 35,000 -532 Descending Los Angeles Center
Wed 02:49:42 PM 36.7869 -113.0856 62° Northeast 440 506 35,000  Level Los Angeles Center
Wed 02:50:44 PM 36.8461 -112.9508 61° Northeast 445 512 35,000  Level Los Angeles Center
Wed 02:51:46 PM 36.9061 -112.8133 61° Northeast 451 519 35,000  Level Los Angeles Center
Wed 02:52:48 PM 36.9772 -112.6486 62° Northeast 452 520 35,000  Level Los Angeles Center
Wed 02:53:51 PM 37.0358 -112.5133 61° Northeast 449 517 35,000  Level Los Angeles Center
Wed 02:54:53 PM 37.0944 -112.3783 61° Northeast 446 513 35,000  Level Los Angeles Center
Wed 02:55:55 PM 37.1533 -112.2414 62° Northeast 449 517 35,000  Level Los Angeles Center
Wed 02:56:57 PM 37.2125 -112.1036 62° Northeast 451 519 35,000  Level Los Angeles Center
Wed 02:57:59 PM 37.2819 -111.9397 62° Northeast 449 517 35,000  Level Los Angeles Center
Wed 02:59:01 PM 37.3400 -111.8022 62° Northeast 449 517 35,000  Level Los Angeles Center
Wed 03:00:03 PM 37.3964 -111.6672 62° Northeast 441 507 35,000  Level Los Angeles Center
Wed 03:01:05 PM 37.4531 -111.5325 62° Northeast 438 504 35,000  Level Los Angeles Center
Wed 03:02:08 PM 37.5089 -111.3986 62° Northeast 435 501 35,000  Level Los Angeles Center
Wed 03:03:28 PM 37.5858 -111.2114 63° Northeast 433 498 35,000  Level Denver Center
Wed 03:04:30 PM 37.6422 -111.0775 62° Northeast 433 498 35,000  Level Denver Center
Wed 03:05:31 PM 37.6844 -110.9706 63° Northeast 429 494 35,000  Level Denver Center
Wed 03:06:34 PM 37.7606 -110.7839 63° Northeast 429 494 35,000  Level Denver Center
Wed 03:07:36 PM 37.8156 -110.6492 63° Northeast 431 496 35,000  Level Denver Center
Wed 03:08:38 PM 37.8708 -110.5131 63° Northeast 432 497 35,000  Level Denver Center
Wed 03:09:40 PM 37.9236 -110.3817 63° Northeast 436 502 35,000  Level Denver Center
Wed 03:10:54 PM 37.9953 -110.2056 63° Northeast 440 506 35,000  Level Denver Center
Wed 03:11:56 PM 38.0528 -110.0575 64° Northeast 441 507 35,000  Level Denver Center
Wed 03:12:58 PM 38.1061 -109.9258 63° Northeast 440 506 35,000  Level Denver Center
Wed 03:14:00 PM 38.1686 -109.7689 63° Northeast 445 512 35,000  Level Denver Center
Wed 03:15:02 PM 38.2208 -109.6342 64° Northeast 444 511 35,000  Level Denver Center
Wed 03:16:05 PM 38.2819 -109.4761 64° Northeast 446 513 35,000  Level Denver Center
Wed 03:17:07 PM 38.3356 -109.3414 63° Northeast 446 513 35,000  Level Denver Center
Wed 03:18:09 PM 38.3961 -109.1808 64° Northeast 451 519 35,000  Level Denver Center
Wed 03:19:11 PM 38.4494 -109.0461 63° Northeast 449 517 35,000  Level Denver Center
Wed 03:20:13 PM 38.5106 -108.8883 64° Northeast 446 513 35,000  Level Denver Center
Wed 03:21:15 PM 38.5625 -108.7508 64° Northeast 449 517 35,000  Level Denver Center
Wed 03:22:17 PM 38.6231 -108.5922 64° Northeast 447 514 35,000  Level Denver Center
Wed 03:23:19 PM 38.6747 -108.4553 64° Northeast 448 516 35,000  Level Denver Center
Wed 03:24:21 PM 38.7342 -108.2956 64° Northeast 447 514 35,000 -581 Level Denver Center
Wed 03:25:23 PM 38.7961 -108.1650 59° Northeast 449 517 33,800 -1,403 Descending Denver Center
Wed 03:26:25 PM 38.8789 -108.0250 53° Northeast 442 509 32,100 -1,548 Descending Denver Center
Wed 03:27:27 PM 38.9475 -107.9000 55° Northeast 449 517 30,600 -1,548 Descending Denver Center
Wed 03:28:29 PM 39.0275 -107.7528 55° Northeast 450 518 28,900 -1,645 Descending Denver Center
Wed 03:29:31 PM 39.0892 -107.6283 57° Northeast 439 505 27,200 -1,887 Descending Denver Center
Wed 03:30:33 PM 39.1592 -107.4811 58° Northeast 433 498 25,000 -2,032 Descending Denver Center
Wed 03:31:35 PM 39.2164 -107.3633 58° Northeast 411 473 23,000 -2,032 Descending Denver Center
Wed 03:32:37 PM 39.2803 -107.2292 58° Northeast 392 451 20,800 -1,584 Descending Denver Center
Wed 03:33:40 PM 39.3378 -107.1239 55° Northeast 374 430 19,700 -1,440 Descending Denver Center
Wed 03:34:42 PM 39.4358 -107.1342 355° North 335 386 17,800 -1,645 Descending Denver Center
Wed 03:35:44 PM 39.5017 -107.1258 North 283 326 16,300 -1,016 Descending Denver Center
Wed 03:36:46 PM 39.4706 -107.0381 115° Southeast 258 297 15,700 -968 Descending Denver Center
Wed 03:37:48 PM 39.4297 -106.9858 135° Southeast 248 285 14,300 -1,452 Descending Denver Center
Wed 03:38:50 PM 39.3769 -106.9442 149° Southeast 193 222 12,700 -1,161 Descending Denver Center
Wed 03:39:52 PM 39.3342 -106.9219 158° South 173 199 11,900 -1,500 Descending Denver Center
Wed 03:40:54 PM 39.2917 -106.9039 162° South 166 191 9,600 -1,790 Descending Denver Center
Wed 03:41:56 PM 39.2511 -106.8831 158° South 157 181 8,200 -1,355 Descending Denver Center

Login

Don't have an account? Register now (free) for customized features, flight alerts, and more!